Manakin Sabot, Virginia
Current Conditions -  °F | °C
As of 12:54 AM on Friday 19 Dec 2014 (Local Time) from KOFP Reporting Station
Overcast Overcast  
Wind Chill: 34°   Ceiling: 9000
Heat Index: 34°   Visibility: 10mi
Dew Point: 24°   Wind: 0mph
Humidity: 67%   Direction: NA
Pressure: 30.13"   Gusts: NA
Location:  37.65°N, 77.72°W
Report Text: KOFP 190554Z AUTO 00000KT 10SM OVC090 01/M04 A3013 RMK AO2 SLP205 T00111044 10028 21011 50008
Loading
Personal Weather Stations






























Interactive Weather Map New forecast layout! Learn more

10-Day Weather Forecast

Advertisements
Track Severe Weather on mobile